sensor_id;sensor_type;location;lat;lon;timestamp;pressure;altitude;pressure_sealevel;temperature;humidity
38452;BME280;24231;52.514;13.438;2023-05-11T00:01:59;100905.20;;;19.77;48.95
38452;BME280;24231;52.514;13.438;2023-05-11T00:04:27;100909.37;;;19.12;50.78
38452;BME280;24231;52.514;13.438;2023-05-11T00:06:54;100909.32;;;19.38;49.79
38452;BME280;24231;52.514;13.438;2023-05-11T00:09:22;100907.08;;;19.47;49.61
38452;BME280;24231;52.514;13.438;2023-05-11T00:11:50;100906.46;;;18.58;52.20
38452;BME280;24231;52.514;13.438;2023-05-11T00:14:18;100905.71;;;18.45;53.03
38452;BME280;24231;52.514;13.438;2023-05-11T00:16:45;100900.53;;;19.37;50.91
38452;BME280;24231;52.514;13.438;2023-05-11T00:19:12;100900.66;;;18.79;52.09
38452;BME280;24231;52.514;13.438;2023-05-11T00:21:40;100897.55;;;19.80;49.46
38452;BME280;24231;52.514;13.438;2023-05-11T00:24:07;100897.37;;;20.28;48.46
38452;BME280;24231;52.514;13.438;2023-05-11T00:26:35;100893.48;;;19.87;49.07
38452;BME280;24231;52.514;13.438;2023-05-11T00:29:02;100892.97;;;18.78;51.51
38452;BME280;24231;52.514;13.438;2023-05-11T00:31:29;100890.43;;;18.98;51.08
38452;BME280;24231;52.514;13.438;2023-05-11T00:33:56;100889.37;;;19.12;51.18
38452;BME280;24231;52.514;13.438;2023-05-11T00:36:24;100891.95;;;19.64;49.90
38452;BME280;24231;52.514;13.438;2023-05-11T00:38:51;100893.48;;;19.92;49.27
38452;BME280;24231;52.514;13.438;2023-05-11T00:41:18;100893.48;;;19.83;48.88
38452;BME280;24231;52.514;13.438;2023-05-11T00:43:46;100895.42;;;20.11;48.03
38452;BME280;24231;52.514;13.438;2023-05-11T00:46:13;100895.03;;;20.14;47.74
38452;BME280;24231;52.514;13.438;2023-05-11T00:48:40;100896.44;;;20.26;46.83
38452;BME280;24231;52.514;13.438;2023-05-11T00:51:07;100898.17;;;20.49;46.70
38452;BME280;24231;52.514;13.438;2023-05-11T00:53:34;100895.73;;;19.64;48.30
38452;BME280;24231;52.514;13.438;2023-05-11T00:56:03;100895.20;;;18.91;50.75
38452;BME280;24231;52.514;13.438;2023-05-11T00:58:30;100891.00;;;19.56;49.27
38452;BME280;24231;52.514;13.438;2023-05-11T01:00:57;100896.56;;;20.03;48.65
38452;BME280;24231;52.514;13.438;2023-05-11T01:03:25;100894.48;;;19.89;48.94
38452;BME280;24231;52.514;13.438;2023-05-11T01:06:01;100896.01;;;20.10;48.42
38452;BME280;24231;52.514;13.438;2023-05-11T01:08:38;100894.51;;;19.79;49.19
38452;BME280;24231;52.514;13.438;2023-05-11T01:11:10;100893.77;;;19.81;49.22
38452;BME280;24231;52.514;13.438;2023-05-11T01:13:42;100900.10;;;19.50;49.73
38452;BME280;24231;52.514;13.438;2023-05-11T01:16:16;100909.15;;;17.17;56.47
38452;BME280;24231;52.514;13.438;2023-05-11T01:18:49;100915.96;;;16.77;58.05
38452;BME280;24231;52.514;13.438;2023-05-11T01:21:17;100914.35;;;16.09;61.27
38452;BME280;24231;52.514;13.438;2023-05-11T01:24:22;100909.01;;;17.72;56.16
38452;BME280;24231;52.514;13.438;2023-05-11T01:27:03;100921.00;;;15.60;63.58
38452;BME280;24231;52.514;13.438;2023-05-11T01:30:42;100919.77;;;15.80;63.45
38452;BME280;24231;52.514;13.438;2023-05-11T01:33:14;100921.27;;;15.38;64.70
38452;BME280;24231;52.514;13.438;2023-05-11T01:35:49;100923.75;;;16.62;60.92
38452;BME280;24231;52.514;13.438;2023-05-11T01:38:20;100924.97;;;15.54;64.91
38452;BME280;24231;52.514;13.438;2023-05-11T01:40:51;100926.59;;;14.92;67.42
38452;BME280;24231;52.514;13.438;2023-05-11T01:43:22;100932.13;;;15.03;67.51
38452;BME280;24231;52.514;13.438;2023-05-11T01:45:54;100925.49;;;15.76;65.68
38452;BME280;24231;52.514;13.438;2023-05-11T01:48:23;100933.76;;;14.67;69.69
38452;BME280;24231;52.514;13.438;2023-05-11T01:50:52;100934.27;;;13.79;74.49
38452;BME280;24231;52.514;13.438;2023-05-11T01:53:22;100935.55;;;14.74;69.27
38452;BME280;24231;52.514;13.438;2023-05-11T01:55:50;100935.54;;;14.58;70.43
38452;BME280;24231;52.514;13.438;2023-05-11T01:58:18;100935.94;;;14.89;69.27
38452;BME280;24231;52.514;13.438;2023-05-11T02:00:47;100934.90;;;14.83;68.84
38452;BME280;24231;52.514;13.438;2023-05-11T02:03:15;100933.54;;;15.32;66.67
38452;BME280;24231;52.514;13.438;2023-05-11T02:05:45;100936.64;;;15.90;65.25
38452;BME280;24231;52.514;13.438;2023-05-11T02:08:14;100941.26;;;15.66;66.28
38452;BME280;24231;52.514;13.438;2023-05-11T02:10:42;100945.26;;;16.10;62.68
38452;BME280;24231;52.514;13.438;2023-05-11T02:13:11;100947.38;;;14.74;69.18
38452;BME280;24231;52.514;13.438;2023-05-11T02:15:41;100945.82;;;14.53;70.24
38452;BME280;24231;52.514;13.438;2023-05-11T02:18:12;100949.60;;;14.11;72.38
38452;BME280;24231;52.514;13.438;2023-05-11T02:20:43;100948.09;;;13.97;73.89
38452;BME280;24231;52.514;13.438;2023-05-11T02:23:11;100950.11;;;14.05;73.60
38452;BME280;24231;52.514;13.438;2023-05-11T02:25:39;100955.63;;;13.75;74.33
38452;BME280;24231;52.514;13.438;2023-05-11T02:28:07;100957.70;;;13.72;74.30
38452;BME280;24231;52.514;13.438;2023-05-11T02:30:39;100955.64;;;13.82;73.51
38452;BME280;24231;52.514;13.438;2023-05-11T02:33:13;100953.41;;;14.01;72.75
38452;BME280;24231;52.514;13.438;2023-05-11T02:35:42;100957.57;;;13.75;73.59
38452;BME280;24231;52.514;13.438;2023-05-11T02:38:10;100958.60;;;13.68;73.42
38452;BME280;24231;52.514;13.438;2023-05-11T02:40:43;100960.95;;;13.08;75.40
38452;BME280;24231;52.514;13.438;2023-05-11T02:43:13;100957.61;;;13.55;72.59
38452;BME280;24231;52.514;13.438;2023-05-11T02:45:43;100960.55;;;13.44;72.91
38452;BME280;24231;52.514;13.438;2023-05-11T02:48:18;100955.90;;;13.86;70.92
38452;BME280;24231;52.514;13.438;2023-05-11T02:50:48;100960.00;;;13.23;73.12
38452;BME280;24231;52.514;13.438;2023-05-11T02:53:19;100958.50;;;13.60;71.46
38452;BME280;24231;52.514;13.438;2023-05-11T02:55:47;100960.38;;;13.73;69.79
38452;BME280;24231;52.514;13.438;2023-05-11T02:58:17;100965.84;;;12.92;73.25
38452;BME280;24231;52.514;13.438;2023-05-11T03:00:44;100960.29;;;13.52;71.00
38452;BME280;24231;52.514;13.438;2023-05-11T03:03:12;100960.74;;;14.07;68.50
38452;BME280;24231;52.514;13.438;2023-05-11T03:05:39;100961.62;;;13.73;68.65
38452;BME280;24231;52.514;13.438;2023-05-11T03:08:06;100961.21;;;13.71;68.54
38452;BME280;24231;52.514;13.438;2023-05-11T03:10:33;100960.51;;;13.54;68.74
38452;BME280;24231;52.514;13.438;2023-05-11T03:13:01;100958.29;;;13.95;67.62
38452;BME280;24231;52.514;13.438;2023-05-11T03:15:30;100960.77;;;13.35;69.26
38452;BME280;24231;52.514;13.438;2023-05-11T03:17:58;100955.58;;;14.12;66.60
38452;BME280;24231;52.514;13.438;2023-05-11T03:20:26;100959.63;;;13.59;68.41
38452;BME280;24231;52.514;13.438;2023-05-11T03:22:54;100958.70;;;13.68;67.37
38452;BME280;24231;52.514;13.438;2023-05-11T03:25:22;100958.17;;;14.18;65.78
38452;BME280;24231;52.514;13.438;2023-05-11T03:27:52;100967.65;;;13.25;68.55
38452;BME280;24231;52.514;13.438;2023-05-11T03:30:19;100970.34;;;13.12;68.64
38452;BME280;24231;52.514;13.438;2023-05-11T03:32:48;100963.21;;;14.17;63.20
38452;BME280;24231;52.514;13.438;2023-05-11T03:35:15;100962.95;;;13.88;63.68
38452;BME280;24231;52.514;13.438;2023-05-11T03:37:44;100962.43;;;13.71;63.81
38452;BME280;24231;52.514;13.438;2023-05-11T03:40:13;100970.41;;;12.94;67.80
38452;BME280;24231;52.514;13.438;2023-05-11T03:42:41;100971.26;;;12.85;68.43
38452;BME280;24231;52.514;13.438;2023-05-11T03:45:12;100972.42;;;12.74;69.34
38452;BME280;24231;52.514;13.438;2023-05-11T03:47:42;100975.59;;;13.20;67.53
38452;BME280;24231;52.514;13.438;2023-05-11T03:50:10;100974.91;;;12.47;69.53
38452;BME280;24231;52.514;13.438;2023-05-11T03:52:38;100974.05;;;12.90;67.02
38452;BME280;24231;52.514;13.438;2023-05-11T03:55:07;100972.46;;;13.06;65.88
38452;BME280;24231;52.514;13.438;2023-05-11T03:57:35;100972.68;;;13.24;65.19
38452;BME280;24231;52.514;13.438;2023-05-11T04:00:03;100972.74;;;12.90;65.99
38452;BME280;24231;52.514;13.438;2023-05-11T04:02:30;100974.85;;;12.97;65.74
38452;BME280;24231;52.514;13.438;2023-05-11T04:04:59;100972.28;;;13.50;63.19
38452;BME280;24231;52.514;13.438;2023-05-11T04:07:26;100970.15;;;13.45;62.83
38452;BME280;24231;52.514;13.438;2023-05-11T04:09:53;100965.49;;;13.75;62.11
38452;BME280;24231;52.514;13.438;2023-05-11T04:12:20;100968.37;;;14.04;60.92
38452;BME280;24231;52.514;13.438;2023-05-11T04:14:46;100970.59;;;13.65;61.94
38452;BME280;24231;52.514;13.438;2023-05-11T04:17:13;100966.91;;;14.00;60.03
38452;BME280;24231;52.514;13.438;2023-05-11T04:19:40;100970.61;;;13.89;60.33
38452;BME280;24231;52.514;13.438;2023-05-11T04:22:07;100971.17;;;14.12;59.03
38452;BME280;24231;52.514;13.438;2023-05-11T04:24:34;100976.84;;;13.92;59.17
38452;BME280;24231;52.514;13.438;2023-05-11T04:27:01;100974.81;;;15.23;55.12
38452;BME280;24231;52.514;13.438;2023-05-11T04:29:28;100972.19;;;14.09;58.03
38452;BME280;24231;52.514;13.438;2023-05-11T04:31:55;100975.94;;;14.36;56.70
38452;BME280;24231;52.514;13.438;2023-05-11T04:34:22;100978.47;;;14.01;58.13
38452;BME280;24231;52.514;13.438;2023-05-11T04:36:49;100978.49;;;14.78;55.93
38452;BME280;24231;52.514;13.438;2023-05-11T04:39:17;100976.79;;;14.78;55.20
38452;BME280;24231;52.514;13.438;2023-05-11T04:41:44;100981.96;;;14.99;54.32
38452;BME280;24231;52.514;13.438;2023-05-11T04:44:11;100985.15;;;14.63;54.99
38452;BME280;24231;52.514;13.438;2023-05-11T04:46:38;100990.21;;;14.80;54.30
38452;BME280;24231;52.514;13.438;2023-05-11T04:49:11;100988.35;;;14.74;54.25
38452;BME280;24231;52.514;13.438;2023-05-11T04:51:45;100987.64;;;15.24;52.16
38452;BME280;24231;52.514;13.438;2023-05-11T04:54:12;100989.93;;;15.56;50.72
38452;BME280;24231;52.514;13.438;2023-05-11T04:56:39;100992.01;;;15.08;51.92
38452;BME280;24231;52.514;13.438;2023-05-11T04:59:06;100994.93;;;15.37;50.94
38452;BME280;24231;52.514;13.438;2023-05-11T05:01:38;100992.81;;;15.82;50.01
38452;BME280;24231;52.514;13.438;2023-05-11T05:04:05;100994.05;;;16.28;48.82
38452;BME280;24231;52.514;13.438;2023-05-11T05:06:33;100997.53;;;16.20;48.71
38452;BME280;24231;52.514;13.438;2023-05-11T05:08:59;101001.60;;;15.70;50.21
38452;BME280;24231;52.514;13.438;2023-05-11T05:11:27;100999.79;;;17.27;46.11
38452;BME280;24231;52.514;13.438;2023-05-11T05:13:54;101001.77;;;16.79;46.48
38452;BME280;24231;52.514;13.438;2023-05-11T05:16:21;101002.38;;;16.98;45.98
38452;BME280;24231;52.514;13.438;2023-05-11T05:18:48;101001.80;;;17.34;44.93
38452;BME280;24231;52.514;13.438;2023-05-11T05:21:15;101003.17;;;16.74;46.14
38452;BME280;24231;52.514;13.438;2023-05-11T05:23:42;101002.24;;;17.23;44.76
38452;BME280;24231;52.514;13.438;2023-05-11T05:26:10;101000.19;;;17.43;44.12
38452;BME280;24231;52.514;13.438;2023-05-11T05:28:37;100997.61;;;17.95;42.96
38452;BME280;24231;52.514;13.438;2023-05-11T05:31:03;100997.71;;;18.74;40.86
38452;BME280;24231;52.514;13.438;2023-05-11T05:33:31;100999.64;;;18.93;41.06
38452;BME280;24231;52.514;13.438;2023-05-11T05:35:58;100998.40;;;18.08;43.13
38452;BME280;24231;52.514;13.438;2023-05-11T05:38:26;100998.85;;;18.47;42.14
38452;BME280;24231;52.514;13.438;2023-05-11T05:40:53;101005.40;;;17.67;43.98
38452;BME280;24231;52.514;13.438;2023-05-11T05:43:20;101007.89;;;17.62;43.47
38452;BME280;24231;52.514;13.438;2023-05-11T05:45:47;101007.09;;;18.26;42.39
38452;BME280;24231;52.514;13.438;2023-05-11T05:48:15;101004.53;;;18.85;41.04
38452;BME280;24231;52.514;13.438;2023-05-11T05:50:42;101009.06;;;19.18;39.31
38452;BME280;24231;52.514;13.438;2023-05-11T05:53:09;101023.03;;;18.60;41.01
38452;BME280;24231;52.514;13.438;2023-05-11T05:55:36;101014.83;;;19.05;40.85
38452;BME280;24231;52.514;13.438;2023-05-11T05:58:03;101023.92;;;18.56;41.26
38452;BME280;24231;52.514;13.438;2023-05-11T06:00:30;101019.43;;;19.04;40.93
38452;BME280;24231;52.514;13.438;2023-05-11T06:02:57;101021.74;;;18.97;40.87
38452;BME280;24231;52.514;13.438;2023-05-11T06:05:24;101022.53;;;19.47;40.32
38452;BME280;24231;52.514;13.438;2023-05-11T06:07:51;101019.66;;;20.37;38.07
38452;BME280;24231;52.514;13.438;2023-05-11T06:10:18;101030.18;;;19.76;39.68
38452;BME280;24231;52.514;13.438;2023-05-11T06:12:45;101027.92;;;18.81;41.25
38452;BME280;24231;52.514;13.438;2023-05-11T06:15:12;101037.84;;;19.11;40.97
38452;BME280;24231;52.514;13.438;2023-05-11T06:17:40;101026.07;;;19.36;40.30
38452;BME280;24231;52.514;13.438;2023-05-11T06:20:08;101031.35;;;18.61;41.51
38452;BME280;24231;52.514;13.438;2023-05-11T06:22:35;101030.00;;;19.55;38.99
38452;BME280;24231;52.514;13.438;2023-05-11T06:25:03;101033.87;;;19.09;40.12
38452;BME280;24231;52.514;13.438;2023-05-11T06:27:30;101030.51;;;19.46;39.55
38452;BME280;24231;52.514;13.438;2023-05-11T06:29:57;101024.50;;;20.75;37.31
38452;BME280;24231;52.514;13.438;2023-05-11T06:32:24;101027.34;;;20.82;36.29
38452;BME280;24231;52.514;13.438;2023-05-11T06:34:51;101022.76;;;20.53;36.72
38452;BME280;24231;52.514;13.438;2023-05-11T06:37:18;101021.19;;;20.41;36.85
38452;BME280;24231;52.514;13.438;2023-05-11T06:39:46;101028.71;;;20.84;36.39
38452;BME280;24231;52.514;13.438;2023-05-11T06:42:13;101031.27;;;21.75;34.64
38452;BME280;24231;52.514;13.438;2023-05-11T06:44:40;101032.12;;;21.30;34.94
38452;BME280;24231;52.514;13.438;2023-05-11T06:47:08;101031.99;;;20.14;37.38
38452;BME280;24231;52.514;13.438;2023-05-11T06:49:35;101030.01;;;20.85;36.02
38452;BME280;24231;52.514;13.438;2023-05-11T06:52:02;101025.48;;;20.86;36.08
38452;BME280;24231;52.514;13.438;2023-05-11T06:54:28;101028.01;;;21.55;34.77
38452;BME280;24231;52.514;13.438;2023-05-11T06:56:55;101026.05;;;20.52;36.47
38452;BME280;24231;52.514;13.438;2023-05-11T06:59:23;101024.53;;;20.99;36.07
38452;BME280;24231;52.514;13.438;2023-05-11T07:01:50;101024.04;;;21.21;35.20
38452;BME280;24231;52.514;13.438;2023-05-11T07:04:17;101033.28;;;20.01;37.22
38452;BME280;24231;52.514;13.438;2023-05-11T07:06:44;101028.28;;;20.86;35.93
38452;BME280;24231;52.514;13.438;2023-05-11T07:09:11;101030.52;;;20.17;36.96
38452;BME280;24231;52.514;13.438;2023-05-11T07:11:38;101027.15;;;20.47;36.52
38452;BME280;24231;52.514;13.438;2023-05-11T07:14:04;101031.52;;;21.66;35.02
38452;BME280;24231;52.514;13.438;2023-05-11T07:16:32;101034.11;;;21.34;34.55
38452;BME280;24231;52.514;13.438;2023-05-11T07:18:59;101023.66;;;22.02;33.36
38452;BME280;24231;52.514;13.438;2023-05-11T07:21:26;101020.20;;;22.44;32.42
38452;BME280;24231;52.514;13.438;2023-05-11T07:23:53;101022.27;;;22.58;32.23
38452;BME280;24231;52.514;13.438;2023-05-11T07:26:19;101029.76;;;22.30;32.58
38452;BME280;24231;52.514;13.438;2023-05-11T07:28:46;101027.90;;;21.70;33.35
38452;BME280;24231;52.514;13.438;2023-05-11T07:31:13;101032.00;;;21.51;33.48
38452;BME280;24231;52.514;13.438;2023-05-11T07:33:40;101029.67;;;22.03;32.98
38452;BME280;24231;52.514;13.438;2023-05-11T07:36:07;101025.02;;;21.95;33.07
38452;BME280;24231;52.514;13.438;2023-05-11T07:38:34;101023.85;;;22.17;32.33
38452;BME280;24231;52.514;13.438;2023-05-11T07:41:01;101020.52;;;22.33;31.87
38452;BME280;24231;52.514;13.438;2023-05-11T07:43:28;101017.60;;;22.59;31.78
38452;BME280;24231;52.514;13.438;2023-05-11T07:45:55;101023.77;;;22.78;31.06
38452;BME280;24231;52.514;13.438;2023-05-11T07:48:22;101041.38;;;22.07;31.59
38452;BME280;24231;52.514;13.438;2023-05-11T07:50:49;101019.39;;;23.34;30.62
38452;BME280;24231;52.514;13.438;2023-05-11T07:53:15;101023.50;;;22.41;31.66
38452;BME280;24231;52.514;13.438;2023-05-11T07:55:43;101022.67;;;23.05;31.12
38452;BME280;24231;52.514;13.438;2023-05-11T07:58:10;101017.00;;;24.24;29.53
38452;BME280;24231;52.514;13.438;2023-05-11T08:00:38;101016.09;;;23.38;30.51
38452;BME280;24231;52.514;13.438;2023-05-11T08:03:05;101017.28;;;23.39;30.26
38452;BME280;24231;52.514;13.438;2023-05-11T08:05:33;101017.02;;;24.38;29.18
38452;BME280;24231;52.514;13.438;2023-05-11T08:08:01;101017.67;;;23.80;29.65
38452;BME280;24231;52.514;13.438;2023-05-11T08:10:28;101015.37;;;24.80;28.92
38452;BME280;24231;52.514;13.438;2023-05-11T08:12:55;101016.32;;;24.04;29.66
38452;BME280;24231;52.514;13.438;2023-05-11T08:15:22;101020.01;;;23.66;30.13
38452;BME280;24231;52.514;13.438;2023-05-11T08:17:50;101018.83;;;24.20;28.82
38452;BME280;24231;52.514;13.438;2023-05-11T08:20:17;101023.00;;;23.03;31.23
38452;BME280;24231;52.514;13.438;2023-05-11T08:22:44;101024.70;;;23.21;30.81
38452;BME280;24231;52.514;13.438;2023-05-11T08:25:11;101017.75;;;22.96;30.77
38452;BME280;24231;52.514;13.438;2023-05-11T08:27:39;101018.38;;;22.80;31.54
38452;BME280;24231;52.514;13.438;2023-05-11T08:30:07;101023.56;;;22.71;31.49
38452;BME280;24231;52.514;13.438;2023-05-11T08:32:34;101028.02;;;22.07;32.08
38452;BME280;24231;52.514;13.438;2023-05-11T08:35:01;101032.00;;;22.03;32.93
38452;BME280;24231;52.514;13.438;2023-05-11T08:37:29;101024.93;;;21.86;33.00
38452;BME280;24231;52.514;13.438;2023-05-11T08:39:56;101012.03;;;23.15;31.29
38452;BME280;24231;52.514;13.438;2023-05-11T08:42:24;101018.71;;;22.89;31.39
38452;BME280;24231;52.514;13.438;2023-05-11T08:44:54;101019.31;;;21.84;33.07
38452;BME280;24231;52.514;13.438;2023-05-11T08:47:23;101014.06;;;22.34;32.14
38452;BME280;24231;52.514;13.438;2023-05-11T08:49:50;101018.40;;;21.53;33.55
38452;BME280;24231;52.514;13.438;2023-05-11T08:52:18;101030.31;;;22.28;31.95
38452;BME280;24231;52.514;13.438;2023-05-11T08:54:45;101012.19;;;22.57;31.45
38452;BME280;24231;52.514;13.438;2023-05-11T08:57:14;101005.56;;;22.64;31.23
38452;BME280;24231;52.514;13.438;2023-05-11T08:59:43;101020.54;;;22.18;31.37
38452;BME280;24231;52.514;13.438;2023-05-11T09:02:16;101038.29;;;22.08;32.34
38452;BME280;24231;52.514;13.438;2023-05-11T09:04:44;101022.45;;;22.42;32.00
38452;BME280;24231;52.514;13.438;2023-05-11T09:07:14;101009.88;;;22.94;31.17
38452;BME280;24231;52.514;13.438;2023-05-11T09:09:41;101024.67;;;22.16;32.22
38452;BME280;24231;52.514;13.438;2023-05-11T09:12:10;101010.78;;;22.13;31.62
38452;BME280;24231;52.514;13.438;2023-05-11T09:14:37;101015.31;;;22.71;30.71
38452;BME280;24231;52.514;13.438;2023-05-11T09:17:05;101016.82;;;22.52;30.91
38452;BME280;24231;52.514;13.438;2023-05-11T09:19:32;101008.46;;;22.74;30.76
38452;BME280;24231;52.514;13.438;2023-05-11T09:21:59;101005.87;;;22.74;30.65
38452;BME280;24231;52.514;13.438;2023-05-11T09:24:28;101001.70;;;22.97;30.33
38452;BME280;24231;52.514;13.438;2023-05-11T09:27:05;100996.38;;;23.18;30.12
38452;BME280;24231;52.514;13.438;2023-05-11T09:29:33;100992.13;;;23.26;29.73
38452;BME280;24231;52.514;13.438;2023-05-11T09:32:01;101005.38;;;23.32;29.02
38452;BME280;24231;52.514;13.438;2023-05-11T09:34:34;101011.89;;;22.70;29.08
38452;BME280;24231;52.514;13.438;2023-05-11T09:37:02;101001.99;;;23.18;27.77
38452;BME280;24231;52.514;13.438;2023-05-11T09:39:32;101012.98;;;22.73;27.56
38452;BME280;24231;52.514;13.438;2023-05-11T09:42:16;101008.40;;;22.91;27.99
38452;BME280;24231;52.514;13.438;2023-05-11T09:44:44;101005.68;;;22.68;28.72
38452;BME280;24231;52.514;13.438;2023-05-11T09:47:13;101025.10;;;22.44;28.62
38452;BME280;24231;52.514;13.438;2023-05-11T09:49:42;101009.66;;;22.72;28.57
38452;BME280;24231;52.514;13.438;2023-05-11T09:52:10;100997.11;;;22.73;28.55
38452;BME280;24231;52.514;13.438;2023-05-11T09:54:42;100994.54;;;22.52;28.70
38452;BME280;24231;52.514;13.438;2023-05-11T09:57:23;101001.44;;;22.49;28.74
38452;BME280;24231;52.514;13.438;2023-05-11T09:59:50;101005.25;;;22.81;27.95
38452;BME280;24231;52.514;13.438;2023-05-11T10:02:20;100999.15;;;23.00;28.21
38452;BME280;24231;52.514;13.438;2023-05-11T10:04:48;100995.85;;;22.81;28.47
38452;BME280;24231;52.514;13.438;2023-05-11T10:07:24;101012.13;;;23.15;28.63
38452;BME280;24231;52.514;13.438;2023-05-11T10:09:53;100994.98;;;21.65;29.86
38452;BME280;24231;52.514;13.438;2023-05-11T10:12:22;100998.32;;;22.17;28.29
38452;BME280;24231;52.514;13.438;2023-05-11T10:14:51;100986.99;;;22.02;29.39
38452;BME280;24231;52.514;13.438;2023-05-11T10:17:20;101006.78;;;21.96;29.38
38452;BME280;24231;52.514;13.438;2023-05-11T10:19:48;101000.03;;;22.26;29.19
38452;BME280;24231;52.514;13.438;2023-05-11T10:22:16;100996.68;;;22.10;28.97
38452;BME280;24231;52.514;13.438;2023-05-11T10:24:43;100988.61;;;22.31;28.93
38452;BME280;24231;52.514;13.438;2023-05-11T10:27:11;100984.43;;;22.65;28.65
38452;BME280;24231;52.514;13.438;2023-05-11T10:29:38;100986.41;;;22.50;29.02
38452;BME280;24231;52.514;13.438;2023-05-11T10:32:07;100994.42;;;22.66;28.40
38452;BME280;24231;52.514;13.438;2023-05-11T10:34:33;100994.44;;;21.85;29.68
38452;BME280;24231;52.514;13.438;2023-05-11T10:37:03;100986.32;;;21.76;29.91
38452;BME280;24231;52.514;13.438;2023-05-11T10:39:31;101000.03;;;21.15;30.91
38452;BME280;24231;52.514;13.438;2023-05-11T10:42:09;100992.27;;;21.60;30.48
38452;BME280;24231;52.514;13.438;2023-05-11T10:44:59;101003.65;;;21.52;30.55
38452;BME280;24231;52.514;13.438;2023-05-11T10:50:23;100994.49;;;21.33;30.93
38452;BME280;24231;52.514;13.438;2023-05-11T10:53:06;100989.78;;;21.30;30.72
38452;BME280;24231;52.514;13.438;2023-05-11T10:55:52;100987.57;;;21.03;30.95
38452;BME280;24231;52.514;13.438;2023-05-11T10:58:37;100985.31;;;21.41;30.45
38452;BME280;24231;52.514;13.438;2023-05-11T11:01:41;100988.69;;;20.56;31.04
38452;BME280;24231;52.514;13.438;2023-05-11T11:04:10;100987.81;;;20.42;31.04
38452;BME280;24231;52.514;13.438;2023-05-11T11:06:39;100988.49;;;21.43;29.94
38452;BME280;24231;52.514;13.438;2023-05-11T11:09:08;100980.17;;;21.49;30.21
38452;BME280;24231;52.514;13.438;2023-05-11T11:11:39;100982.26;;;21.42;29.37
38452;BME280;24231;52.514;13.438;2023-05-11T11:14:07;100979.78;;;21.18;29.48
38452;BME280;24231;52.514;13.438;2023-05-11T11:16:36;100978.19;;;21.02;30.11
38452;BME280;24231;52.514;13.438;2023-05-11T11:19:37;100987.62;;;20.82;31.20
38452;BME280;24231;52.514;13.438;2023-05-11T11:22:05;100979.14;;;21.06;30.79
38452;BME280;24231;52.514;13.438;2023-05-11T11:24:47;100984.92;;;21.08;30.46
38452;BME280;24231;52.514;13.438;2023-05-11T11:27:14;100979.89;;;20.93;30.51
38452;BME280;24231;52.514;13.438;2023-05-11T11:30:14;100986.66;;;21.27;30.47
38452;BME280;24231;52.514;13.438;2023-05-11T11:32:42;100982.34;;;20.69;30.79
38452;BME280;24231;52.514;13.438;2023-05-11T11:35:44;100986.45;;;20.85;30.62
38452;BME280;24231;52.514;13.438;2023-05-11T11:38:13;100993.70;;;20.76;30.54
38452;BME280;24231;52.514;13.438;2023-05-11T11:40:42;100987.14;;;20.65;30.60
38452;BME280;24231;52.514;13.438;2023-05-11T11:43:10;100988.59;;;20.64;32.08
38452;BME280;24231;52.514;13.438;2023-05-11T11:45:38;100990.30;;;20.73;32.24
38452;BME280;24231;52.514;13.438;2023-05-11T11:48:14;100996.36;;;21.09;31.78
38452;BME280;24231;52.514;13.438;2023-05-11T11:50:44;100993.73;;;20.49;32.30
38452;BME280;24231;52.514;13.438;2023-05-11T11:53:57;100994.03;;;21.11;30.93
38452;BME280;24231;52.514;13.438;2023-05-11T11:56:41;100990.73;;;20.39;31.09
38452;BME280;24231;52.514;13.438;2023-05-11T11:59:10;100994.54;;;20.63;30.41
38452;BME280;24231;52.514;13.438;2023-05-11T12:01:38;100999.68;;;20.74;30.37
38452;BME280;24231;52.514;13.438;2023-05-11T12:04:21;101004.81;;;20.53;30.74
38452;BME280;24231;52.514;13.438;2023-05-11T12:06:55;101016.44;;;20.55;30.97
38452;BME280;24231;52.514;13.438;2023-05-11T12:09:24;100997.09;;;20.74;29.97
38452;BME280;24231;52.514;13.438;2023-05-11T12:11:52;100997.34;;;20.76;30.29
38452;BME280;24231;52.514;13.438;2023-05-11T12:14:20;101008.54;;;20.85;30.07
38452;BME280;24231;52.514;13.438;2023-05-11T12:17:05;100997.76;;;20.66;30.18
38452;BME280;24231;52.514;13.438;2023-05-11T12:19:33;100991.38;;;20.54;30.04
38452;BME280;24231;52.514;13.438;2023-05-11T12:22:00;100999.67;;;20.63;29.70
38452;BME280;24231;52.514;13.438;2023-05-11T12:24:27;100998.88;;;20.70;29.40
38452;BME280;24231;52.514;13.438;2023-05-11T12:26:56;100995.72;;;20.87;28.66
38452;BME280;24231;52.514;13.438;2023-05-11T12:29:23;101022.92;;;20.64;28.99
38452;BME280;24231;52.514;13.438;2023-05-11T12:31:50;101006.14;;;20.68;29.27
38452;BME280;24231;52.514;13.438;2023-05-11T12:34:18;101015.80;;;20.47;29.85
38452;BME280;24231;52.514;13.438;2023-05-11T12:36:48;100993.09;;;20.75;29.71
38452;BME280;24231;52.514;13.438;2023-05-11T12:39:16;101016.47;;;20.66;29.84
38452;BME280;24231;52.514;13.438;2023-05-11T12:41:45;101018.99;;;20.58;30.02
38452;BME280;24231;52.514;13.438;2023-05-11T12:44:14;101005.36;;;20.31;30.50
38452;BME280;24231;52.514;13.438;2023-05-11T12:46:42;101007.29;;;20.54;30.12
38452;BME280;24231;52.514;13.438;2023-05-11T12:49:09;100992.93;;;20.59;29.80
38452;BME280;24231;52.514;13.438;2023-05-11T12:52:02;100999.67;;;20.61;29.62
38452;BME280;24231;52.514;13.438;2023-05-11T12:54:31;101003.04;;;20.44;29.62
38452;BME280;24231;52.514;13.438;2023-05-11T12:57:00;100993.84;;;20.79;29.05